sensor_id;sensor_type;location;lat;lon;timestamp;temperature;humidity
9116;DHT22;4593;53.652;10.168;2023-04-25T00:02:18;8.40;96.00
9116;DHT22;4593;53.652;10.168;2023-04-25T00:04:45;8.40;96.10
9116;DHT22;4593;53.652;10.168;2023-04-25T00:07:11;8.40;96.00
9116;DHT22;4593;53.652;10.168;2023-04-25T00:09:38;8.40;95.90
9116;DHT22;4593;53.652;10.168;2023-04-25T00:12:03;8.40;96.10
9116;DHT22;4593;53.652;10.168;2023-04-25T00:14:30;8.30;96.00
9116;DHT22;4593;53.652;10.168;2023-04-25T00:16:55;8.10;95.80
9116;DHT22;4593;53.652;10.168;2023-04-25T00:19:21;7.80;96.20
9116;DHT22;4593;53.652;10.168;2023-04-25T00:21:47;7.70;97.00
9116;DHT22;4593;53.652;10.168;2023-04-25T00:24:13;7.60;96.60
9116;DHT22;4593;53.652;10.168;2023-04-25T00:26:39;7.50;96.60
9116;DHT22;4593;53.652;10.168;2023-04-25T00:29:04;7.50;96.40
9116;DHT22;4593;53.652;10.168;2023-04-25T00:31:30;7.40;96.80
9116;DHT22;4593;53.652;10.168;2023-04-25T00:33:56;7.50;97.20
9116;DHT22;4593;53.652;10.168;2023-04-25T00:36:21;7.60;96.90
9116;DHT22;4593;53.652;10.168;2023-04-25T00:38:47;7.50;96.70
9116;DHT22;4593;53.652;10.168;2023-04-25T00:41:13;7.50;97.10
9116;DHT22;4593;53.652;10.168;2023-04-25T00:43:39;7.50;96.70
9116;DHT22;4593;53.652;10.168;2023-04-25T00:46:05;7.40;96.80
9116;DHT22;4593;53.652;10.168;2023-04-25T00:48:31;7.30;95.40
9116;DHT22;4593;53.652;10.168;2023-04-25T00:50:58;7.30;95.30
9116;DHT22;4593;53.652;10.168;2023-04-25T00:53:25;7.30;95.10
9116;DHT22;4593;53.652;10.168;2023-04-25T00:55:52;7.20;95.30
9116;DHT22;4593;53.652;10.168;2023-04-25T00:58:19;7.20;95.00
9116;DHT22;4593;53.652;10.168;2023-04-25T01:00:49;7.20;95.00
9116;DHT22;4593;53.652;10.168;2023-04-25T01:03:16;7.20;95.10
9116;DHT22;4593;53.652;10.168;2023-04-25T01:05:43;7.20;95.20
9116;DHT22;4593;53.652;10.168;2023-04-25T01:08:09;7.30;95.30
9116;DHT22;4593;53.652;10.168;2023-04-25T01:10:35;7.30;94.50
9116;DHT22;4593;53.652;10.168;2023-04-25T01:13:01;7.20;94.90
9116;DHT22;4593;53.652;10.168;2023-04-25T01:15:27;7.10;94.50
9116;DHT22;4593;53.652;10.168;2023-04-25T01:17:53;7.20;94.60
9116;DHT22;4593;53.652;10.168;2023-04-25T01:20:21;7.20;94.10
9116;DHT22;4593;53.652;10.168;2023-04-25T01:22:48;7.20;94.80
9116;DHT22;4593;53.652;10.168;2023-04-25T01:25:15;7.20;94.10
9116;DHT22;4593;53.652;10.168;2023-04-25T01:27:41;7.20;93.60
9116;DHT22;4593;53.652;10.168;2023-04-25T01:30:07;7.10;93.10
9116;DHT22;4593;53.652;10.168;2023-04-25T01:32:33;7.10;93.20
9116;DHT22;4593;53.652;10.168;2023-04-25T01:35:06;7.10;92.40
9116;DHT22;4593;53.652;10.168;2023-04-25T01:37:45;7.10;91.80
9116;DHT22;4593;53.652;10.168;2023-04-25T01:40:11;7.00;90.90
9116;DHT22;4593;53.652;10.168;2023-04-25T01:42:42;6.90;91.40
9116;DHT22;4593;53.652;10.168;2023-04-25T01:45:10;6.90;89.90
9116;DHT22;4593;53.652;10.168;2023-04-25T01:47:36;6.80;89.00
9116;DHT22;4593;53.652;10.168;2023-04-25T01:50:07;6.80;89.30
9116;DHT22;4593;53.652;10.168;2023-04-25T01:52:33;6.90;89.30
9116;DHT22;4593;53.652;10.168;2023-04-25T01:55:00;6.90;88.80
9116;DHT22;4593;53.652;10.168;2023-04-25T01:57:26;6.90;88.10
9116;DHT22;4593;53.652;10.168;2023-04-25T01:59:59;6.80;87.60
9116;DHT22;4593;53.652;10.168;2023-04-25T02:02:25;6.80;87.70
9116;DHT22;4593;53.652;10.168;2023-04-25T02:04:51;6.80;87.00
9116;DHT22;4593;53.652;10.168;2023-04-25T02:07:17;6.80;86.70
9116;DHT22;4593;53.652;10.168;2023-04-25T02:09:43;6.70;86.80
9116;DHT22;4593;53.652;10.168;2023-04-25T02:12:10;6.80;87.00
9116;DHT22;4593;53.652;10.168;2023-04-25T02:14:35;6.80;86.40
9116;DHT22;4593;53.652;10.168;2023-04-25T02:17:02;6.80;86.80
9116;DHT22;4593;53.652;10.168;2023-04-25T02:19:27;6.80;85.90
9116;DHT22;4593;53.652;10.168;2023-04-25T02:21:53;6.80;86.20
9116;DHT22;4593;53.652;10.168;2023-04-25T02:24:18;6.90;86.20
9116;DHT22;4593;53.652;10.168;2023-04-25T02:26:44;6.90;85.50
9116;DHT22;4593;53.652;10.168;2023-04-25T02:29:12;6.90;85.20
9116;DHT22;4593;53.652;10.168;2023-04-25T02:31:37;6.80;84.60
9116;DHT22;4593;53.652;10.168;2023-04-25T02:34:03;6.70;83.60
9116;DHT22;4593;53.652;10.168;2023-04-25T02:36:29;6.60;84.10
9116;DHT22;4593;53.652;10.168;2023-04-25T02:38:57;6.50;84.30
9116;DHT22;4593;53.652;10.168;2023-04-25T02:41:23;6.40;84.30
9116;DHT22;4593;53.652;10.168;2023-04-25T02:43:48;6.40;84.60
9116;DHT22;4593;53.652;10.168;2023-04-25T02:46:14;6.40;85.40
9116;DHT22;4593;53.652;10.168;2023-04-25T02:48:40;6.40;84.20
9116;DHT22;4593;53.652;10.168;2023-04-25T02:51:05;6.50;83.60
9116;DHT22;4593;53.652;10.168;2023-04-25T02:53:31;6.50;83.40
9116;DHT22;4593;53.652;10.168;2023-04-25T02:55:57;6.60;83.00
9116;DHT22;4593;53.652;10.168;2023-04-25T02:58:24;6.60;83.30
9116;DHT22;4593;53.652;10.168;2023-04-25T03:00:50;6.70;82.70
9116;DHT22;4593;53.652;10.168;2023-04-25T03:03:16;6.60;82.40
9116;DHT22;4593;53.652;10.168;2023-04-25T03:05:43;6.60;82.40
9116;DHT22;4593;53.652;10.168;2023-04-25T03:08:09;6.50;82.80
9116;DHT22;4593;53.652;10.168;2023-04-25T03:10:35;6.30;81.80
9116;DHT22;4593;53.652;10.168;2023-04-25T03:13:00;6.20;82.70
9116;DHT22;4593;53.652;10.168;2023-04-25T03:15:26;6.10;82.50
9116;DHT22;4593;53.652;10.168;2023-04-25T03:17:52;6.10;82.80
9116;DHT22;4593;53.652;10.168;2023-04-25T03:20:17;6.00;82.30
9116;DHT22;4593;53.652;10.168;2023-04-25T03:22:43;6.00;82.40
9116;DHT22;4593;53.652;10.168;2023-04-25T03:25:09;5.80;82.40
9116;DHT22;4593;53.652;10.168;2023-04-25T03:27:35;5.70;82.30
9116;DHT22;4593;53.652;10.168;2023-04-25T03:30:01;5.70;82.80
9116;DHT22;4593;53.652;10.168;2023-04-25T03:32:27;5.60;83.10
9116;DHT22;4593;53.652;10.168;2023-04-25T03:34:52;5.50;82.70
9116;DHT22;4593;53.652;10.168;2023-04-25T03:37:18;5.50;83.30
9116;DHT22;4593;53.652;10.168;2023-04-25T03:39:44;5.50;83.50
9116;DHT22;4593;53.652;10.168;2023-04-25T03:42:09;5.40;83.60
9116;DHT22;4593;53.652;10.168;2023-04-25T03:44:35;5.40;84.20
9116;DHT22;4593;53.652;10.168;2023-04-25T03:47:00;5.40;85.30
9116;DHT22;4593;53.652;10.168;2023-04-25T03:49:26;5.40;84.30
9116;DHT22;4593;53.652;10.168;2023-04-25T03:51:52;5.40;83.60
9116;DHT22;4593;53.652;10.168;2023-04-25T03:54:17;5.30;83.20
9116;DHT22;4593;53.652;10.168;2023-04-25T03:56:43;5.30;82.20
9116;DHT22;4593;53.652;10.168;2023-04-25T03:59:09;5.30;82.40
9116;DHT22;4593;53.652;10.168;2023-04-25T04:01:34;5.30;82.50
9116;DHT22;4593;53.652;10.168;2023-04-25T04:04:00;5.40;82.30
9116;DHT22;4593;53.652;10.168;2023-04-25T04:06:26;5.50;82.40
9116;DHT22;4593;53.652;10.168;2023-04-25T04:08:52;5.50;81.10
9116;DHT22;4593;53.652;10.168;2023-04-25T04:11:17;5.60;80.70
9116;DHT22;4593;53.652;10.168;2023-04-25T04:13:43;5.60;80.50
9116;DHT22;4593;53.652;10.168;2023-04-25T04:16:09;5.70;80.30
9116;DHT22;4593;53.652;10.168;2023-04-25T04:18:35;5.80;80.40
9116;DHT22;4593;53.652;10.168;2023-04-25T04:21:01;5.80;79.90
9116;DHT22;4593;53.652;10.168;2023-04-25T04:23:26;5.70;79.70
9116;DHT22;4593;53.652;10.168;2023-04-25T04:25:55;5.60;80.60
9116;DHT22;4593;53.652;10.168;2023-04-25T04:28:21;5.50;81.40
9116;DHT22;4593;53.652;10.168;2023-04-25T04:30:47;5.50;81.60
9116;DHT22;4593;53.652;10.168;2023-04-25T04:33:13;5.50;81.80
9116;DHT22;4593;53.652;10.168;2023-04-25T04:35:40;5.60;81.80
9116;DHT22;4593;53.652;10.168;2023-04-25T04:38:07;5.60;81.20
9116;DHT22;4593;53.652;10.168;2023-04-25T04:40:32;5.80;80.40
9116;DHT22;4593;53.652;10.168;2023-04-25T04:42:58;5.90;79.70
9116;DHT22;4593;53.652;10.168;2023-04-25T04:45:24;6.00;79.40
9116;DHT22;4593;53.652;10.168;2023-04-25T04:47:50;6.10;79.00
9116;DHT22;4593;53.652;10.168;2023-04-25T04:50:15;6.10;78.80
9116;DHT22;4593;53.652;10.168;2023-04-25T04:52:41;6.20;78.20
9116;DHT22;4593;53.652;10.168;2023-04-25T04:55:08;6.20;77.20
9116;DHT22;4593;53.652;10.168;2023-04-25T04:57:34;6.30;76.70
9116;DHT22;4593;53.652;10.168;2023-04-25T05:00:00;6.40;76.60
9116;DHT22;4593;53.652;10.168;2023-04-25T05:02:26;6.40;75.70
9116;DHT22;4593;53.652;10.168;2023-04-25T05:04:52;6.50;76.00
9116;DHT22;4593;53.652;10.168;2023-04-25T05:07:18;6.60;75.50
9116;DHT22;4593;53.652;10.168;2023-04-25T05:09:44;6.70;75.00
9116;DHT22;4593;53.652;10.168;2023-04-25T05:12:10;6.80;75.40
9116;DHT22;4593;53.652;10.168;2023-04-25T05:14:36;7.00;75.00
9116;DHT22;4593;53.652;10.168;2023-04-25T05:17:02;7.00;72.90
9116;DHT22;4593;53.652;10.168;2023-04-25T05:19:30;7.00;72.80
9116;DHT22;4593;53.652;10.168;2023-04-25T05:21:56;7.10;73.10
9116;DHT22;4593;53.652;10.168;2023-04-25T05:24:21;7.20;72.60
9116;DHT22;4593;53.652;10.168;2023-04-25T05:26:47;7.20;71.20
9116;DHT22;4593;53.652;10.168;2023-04-25T05:29:12;6.90;70.50
9116;DHT22;4593;53.652;10.168;2023-04-25T05:31:38;6.80;72.60
9116;DHT22;4593;53.652;10.168;2023-04-25T05:34:04;6.50;73.70
9116;DHT22;4593;53.652;10.168;2023-04-25T05:36:29;6.50;74.60
9116;DHT22;4593;53.652;10.168;2023-04-25T05:38:57;6.50;75.00
9116;DHT22;4593;53.652;10.168;2023-04-25T05:41:23;6.60;75.60
9116;DHT22;4593;53.652;10.168;2023-04-25T05:43:49;6.50;75.10
9116;DHT22;4593;53.652;10.168;2023-04-25T05:46:15;6.40;75.00
9116;DHT22;4593;53.652;10.168;2023-04-25T05:48:42;6.30;76.60
9116;DHT22;4593;53.652;10.168;2023-04-25T05:51:08;6.40;77.00
9116;DHT22;4593;53.652;10.168;2023-04-25T05:53:34;6.60;76.70
9116;DHT22;4593;53.652;10.168;2023-04-25T05:56:00;6.50;76.90
9116;DHT22;4593;53.652;10.168;2023-04-25T05:58:26;6.50;76.80
9116;DHT22;4593;53.652;10.168;2023-04-25T06:00:51;6.40;77.50
9116;DHT22;4593;53.652;10.168;2023-04-25T06:03:17;6.30;78.20
9116;DHT22;4593;53.652;10.168;2023-04-25T06:05:43;6.40;78.50
9116;DHT22;4593;53.652;10.168;2023-04-25T06:08:09;6.40;78.30
9116;DHT22;4593;53.652;10.168;2023-04-25T06:10:36;6.60;78.70
9116;DHT22;4593;53.652;10.168;2023-04-25T06:13:02;6.70;79.10
9116;DHT22;4593;53.652;10.168;2023-04-25T06:15:28;6.90;78.80
9116;DHT22;4593;53.652;10.168;2023-04-25T06:17:54;7.10;78.20
9116;DHT22;4593;53.652;10.168;2023-04-25T06:20:20;7.00;77.00
9116;DHT22;4593;53.652;10.168;2023-04-25T06:22:49;7.20;77.60
9116;DHT22;4593;53.652;10.168;2023-04-25T06:25:15;7.40;76.20
9116;DHT22;4593;53.652;10.168;2023-04-25T06:27:40;7.50;76.00
9116;DHT22;4593;53.652;10.168;2023-04-25T06:30:07;7.60;76.30
9116;DHT22;4593;53.652;10.168;2023-04-25T06:32:32;7.80;75.60
9116;DHT22;4593;53.652;10.168;2023-04-25T06:35:00;8.10;75.00
9116;DHT22;4593;53.652;10.168;2023-04-25T06:37:25;8.00;73.70
9116;DHT22;4593;53.652;10.168;2023-04-25T06:39:51;8.10;74.10
9116;DHT22;4593;53.652;10.168;2023-04-25T06:42:17;8.20;72.70
9116;DHT22;4593;53.652;10.168;2023-04-25T06:44:42;8.20;73.60
9116;DHT22;4593;53.652;10.168;2023-04-25T06:47:08;8.10;73.00
9116;DHT22;4593;53.652;10.168;2023-04-25T06:49:34;8.20;73.20
9116;DHT22;4593;53.652;10.168;2023-04-25T06:51:59;8.20;72.10
9116;DHT22;4593;53.652;10.168;2023-04-25T06:54:25;8.00;70.50
9116;DHT22;4593;53.652;10.168;2023-04-25T06:56:53;7.90;71.20
9116;DHT22;4593;53.652;10.168;2023-04-25T06:59:18;8.00;71.50
9116;DHT22;4593;53.652;10.168;2023-04-25T07:01:44;7.90;72.00
9116;DHT22;4593;53.652;10.168;2023-04-25T07:04:10;7.70;74.80
9116;DHT22;4593;53.652;10.168;2023-04-25T07:06:35;7.20;76.30
9116;DHT22;4593;53.652;10.168;2023-04-25T07:09:03;7.20;79.20
9116;DHT22;4593;53.652;10.168;2023-04-25T07:11:30;7.40;79.00
9116;DHT22;4593;53.652;10.168;2023-04-25T07:13:56;7.50;78.30
9116;DHT22;4593;53.652;10.168;2023-04-25T07:16:21;7.40;77.60
9116;DHT22;4593;53.652;10.168;2023-04-25T07:18:47;7.60;78.30
9116;DHT22;4593;53.652;10.168;2023-04-25T07:21:14;8.00;77.70
9116;DHT22;4593;53.652;10.168;2023-04-25T07:23:40;8.10;75.60
9116;DHT22;4593;53.652;10.168;2023-04-25T07:26:06;7.70;76.40
9116;DHT22;4593;53.652;10.168;2023-04-25T07:28:32;7.50;77.60
9116;DHT22;4593;53.652;10.168;2023-04-25T07:30:57;7.10;77.90
9116;DHT22;4593;53.652;10.168;2023-04-25T07:33:23;7.40;79.60
9116;DHT22;4593;53.652;10.168;2023-04-25T07:35:49;7.80;78.40
9116;DHT22;4593;53.652;10.168;2023-04-25T07:38:15;8.00;76.20
9116;DHT22;4593;53.652;10.168;2023-04-25T07:40:41;8.20;75.90
9116;DHT22;4593;53.652;10.168;2023-04-25T07:43:06;8.60;75.40
9116;DHT22;4593;53.652;10.168;2023-04-25T07:45:32;9.20;73.80
9116;DHT22;4593;53.652;10.168;2023-04-25T07:47:58;9.60;71.50
9116;DHT22;4593;53.652;10.168;2023-04-25T07:50:24;9.80;68.90
9116;DHT22;4593;53.652;10.168;2023-04-25T07:52:49;9.70;67.80
9116;DHT22;4593;53.652;10.168;2023-04-25T07:55:15;9.30;67.70
9116;DHT22;4593;53.652;10.168;2023-04-25T07:57:41;9.00;69.00
9116;DHT22;4593;53.652;10.168;2023-04-25T08:00:07;9.10;68.70
9116;DHT22;4593;53.652;10.168;2023-04-25T08:02:35;8.90;69.60
9116;DHT22;4593;53.652;10.168;2023-04-25T08:05:02;8.90;71.10
9116;DHT22;4593;53.652;10.168;2023-04-25T08:07:27;9.00;71.00
9116;DHT22;4593;53.652;10.168;2023-04-25T08:09:54;9.60;70.50
9116;DHT22;4593;53.652;10.168;2023-04-25T08:12:20;10.20;68.30
9116;DHT22;4593;53.652;10.168;2023-04-25T08:14:45;10.20;68.30
9116;DHT22;4593;53.652;10.168;2023-04-25T08:17:11;9.90;67.20
9116;DHT22;4593;53.652;10.168;2023-04-25T08:19:37;9.80;67.30
9116;DHT22;4593;53.652;10.168;2023-04-25T08:22:03;9.30;67.40
9116;DHT22;4593;53.652;10.168;2023-04-25T08:24:28;9.00;69.40
9116;DHT22;4593;53.652;10.168;2023-04-25T08:26:54;8.70;72.90
9116;DHT22;4593;53.652;10.168;2023-04-25T08:29:20;8.00;76.80
9116;DHT22;4593;53.652;10.168;2023-04-25T08:31:45;7.80;79.00
9116;DHT22;4593;53.652;10.168;2023-04-25T08:34:11;7.80;79.60
9116;DHT22;4593;53.652;10.168;2023-04-25T08:36:38;8.00;79.30
9116;DHT22;4593;53.652;10.168;2023-04-25T08:39:03;8.40;79.00
9116;DHT22;4593;53.652;10.168;2023-04-25T08:41:29;8.80;78.90
9116;DHT22;4593;53.652;10.168;2023-04-25T08:43:56;8.50;76.00
9116;DHT22;4593;53.652;10.168;2023-04-25T08:46:23;8.40;76.70
9116;DHT22;4593;53.652;10.168;2023-04-25T08:48:49;8.00;77.10
9116;DHT22;4593;53.652;10.168;2023-04-25T08:51:23;7.50;77.80
9116;DHT22;4593;53.652;10.168;2023-04-25T08:53:51;7.60;80.00
9116;DHT22;4593;53.652;10.168;2023-04-25T08:56:17;7.80;78.90
9116;DHT22;4593;53.652;10.168;2023-04-25T08:58:44;7.90;77.10
9116;DHT22;4593;53.652;10.168;2023-04-25T09:01:14;8.30;77.30
9116;DHT22;4593;53.652;10.168;2023-04-25T09:03:40;8.80;75.50
9116;DHT22;4593;53.652;10.168;2023-04-25T09:06:06;9.50;73.00
9116;DHT22;4593;53.652;10.168;2023-04-25T09:08:32;10.20;71.70
9116;DHT22;4593;53.652;10.168;2023-04-25T09:10:58;10.00;67.90
9116;DHT22;4593;53.652;10.168;2023-04-25T09:13:27;9.50;70.40
9116;DHT22;4593;53.652;10.168;2023-04-25T09:15:55;9.40;71.30
9116;DHT22;4593;53.652;10.168;2023-04-25T09:18:29;9.70;71.70
9116;DHT22;4593;53.652;10.168;2023-04-25T09:20:57;9.70;69.20
9116;DHT22;4593;53.652;10.168;2023-04-25T09:23:23;9.60;68.90
9116;DHT22;4593;53.652;10.168;2023-04-25T09:25:53;9.40;67.90
9116;DHT22;4593;53.652;10.168;2023-04-25T09:28:26;9.50;67.30
9116;DHT22;4593;53.652;10.168;2023-04-25T09:30:56;9.60;63.90
9116;DHT22;4593;53.652;10.168;2023-04-25T09:33:33;9.50;60.30
9116;DHT22;4593;53.652;10.168;2023-04-25T09:38:44;9.40;57.80
9116;DHT22;4593;53.652;10.168;2023-04-25T09:41:11;9.20;59.30
9116;DHT22;4593;53.652;10.168;2023-04-25T09:43:37;9.30;59.00
9116;DHT22;4593;53.652;10.168;2023-04-25T09:46:10;9.70;58.20
9116;DHT22;4593;53.652;10.168;2023-04-25T09:48:37;9.60;56.60
9116;DHT22;4593;53.652;10.168;2023-04-25T09:51:15;10.00;56.40
9116;DHT22;4593;53.652;10.168;2023-04-25T09:53:45;9.80;54.70
9116;DHT22;4593;53.652;10.168;2023-04-25T09:56:13;9.60;57.90
9116;DHT22;4593;53.652;10.168;2023-04-25T09:58:40;9.30;60.60
9116;DHT22;4593;53.652;10.168;2023-04-25T10:01:09;9.20;65.10
9116;DHT22;4593;53.652;10.168;2023-04-25T10:03:39;9.50;67.20
9116;DHT22;4593;53.652;10.168;2023-04-25T10:06:08;10.00;67.10
9116;DHT22;4593;53.652;10.168;2023-04-25T10:08:36;10.30;64.70
9116;DHT22;4593;53.652;10.168;2023-04-25T10:11:06;9.80;63.70
9116;DHT22;4593;53.652;10.168;2023-04-25T10:13:34;9.90;65.50
9116;DHT22;4593;53.652;10.168;2023-04-25T10:16:02;9.70;64.80
9116;DHT22;4593;53.652;10.168;2023-04-25T10:18:29;10.00;64.50
9116;DHT22;4593;53.652;10.168;2023-04-25T10:20:57;10.90;64.30
9116;DHT22;4593;53.652;10.168;2023-04-25T10:23:23;11.80;61.80
9116;DHT22;4593;53.652;10.168;2023-04-25T10:25:50;11.80;58.30
9116;DHT22;4593;53.652;10.168;2023-04-25T10:28:17;11.50;56.70
9116;DHT22;4593;53.652;10.168;2023-04-25T10:31:02;10.90;54.50
9116;DHT22;4593;53.652;10.168;2023-04-25T10:33:40;10.40;52.10
9116;DHT22;4593;53.652;10.168;2023-04-25T10:36:24;10.20;54.00
9116;DHT22;4593;53.652;10.168;2023-04-25T10:38:51;10.50;54.00
9116;DHT22;4593;53.652;10.168;2023-04-25T10:41:19;10.50;53.60
9116;DHT22;4593;53.652;10.168;2023-04-25T10:43:49;10.60;55.10
9116;DHT22;4593;53.652;10.168;2023-04-25T10:46:26;11.10;56.30
9116;DHT22;4593;53.652;10.168;2023-04-25T10:48:57;11.50;54.50
9116;DHT22;4593;53.652;10.168;2023-04-25T10:51:33;11.60;53.60
9116;DHT22;4593;53.652;10.168;2023-04-25T10:56:27;11.50;55.20
9116;DHT22;4593;53.652;10.168;2023-04-25T11:01:52;10.00;57.70
9116;DHT22;4593;53.652;10.168;2023-04-25T11:04:32;9.40;57.70
9116;DHT22;4593;53.652;10.168;2023-04-25T11:07:07;8.90;57.20
9116;DHT22;4593;53.652;10.168;2023-04-25T11:09:38;8.90;58.00
9116;DHT22;4593;53.652;10.168;2023-04-25T11:12:04;9.10;59.90
9116;DHT22;4593;53.652;10.168;2023-04-25T11:14:30;9.30;60.60
9116;DHT22;4593;53.652;10.168;2023-04-25T11:16:57;9.30;60.90
9116;DHT22;4593;53.652;10.168;2023-04-25T11:19:24;9.30;60.50
9116;DHT22;4593;53.652;10.168;2023-04-25T11:21:54;9.30;61.30
9116;DHT22;4593;53.652;10.168;2023-04-25T11:24:21;9.20;59.00
9116;DHT22;4593;53.652;10.168;2023-04-25T11:26:50;9.20;58.50
9116;DHT22;4593;53.652;10.168;2023-04-25T11:29:16;9.10;57.60
9116;DHT22;4593;53.652;10.168;2023-04-25T11:31:45;9.20;58.10
9116;DHT22;4593;53.652;10.168;2023-04-25T11:34:11;9.10;59.40
9116;DHT22;4593;53.652;10.168;2023-04-25T11:36:38;9.10;59.60
9116;DHT22;4593;53.652;10.168;2023-04-25T11:39:04;8.80;60.70
9116;DHT22;4593;53.652;10.168;2023-04-25T11:41:31;8.70;61.30
9116;DHT22;4593;53.652;10.168;2023-04-25T11:43:57;8.80;61.70
9116;DHT22;4593;53.652;10.168;2023-04-25T11:46:22;9.30;62.30
9116;DHT22;4593;53.652;10.168;2023-04-25T11:48:48;9.70;60.60
9116;DHT22;4593;53.652;10.168;2023-04-25T11:51:16;10.10;59.00
9116;DHT22;4593;53.652;10.168;2023-04-25T11:53:42;10.30;58.80
9116;DHT22;4593;53.652;10.168;2023-04-25T11:56:11;10.80;58.20
9116;DHT22;4593;53.652;10.168;2023-04-25T11:58:56;11.10;57.50
9116;DHT22;4593;53.652;10.168;2023-04-25T12:01:27;11.60;52.80
9116;DHT22;4593;53.652;10.168;2023-04-25T12:03:53;11.60;51.10
9116;DHT22;4593;53.652;10.168;2023-04-25T12:06:18;11.60;50.90
9116;DHT22;4593;53.652;10.168;2023-04-25T12:09:21;11.50;45.40
9116;DHT22;4593;53.652;10.168;2023-04-25T12:11:54;11.40;47.00
9116;DHT22;4593;53.652;10.168;2023-04-25T12:14:25;11.10;47.20
9116;DHT22;4593;53.652;10.168;2023-04-25T12:16:55;11.00;48.50
9116;DHT22;4593;53.652;10.168;2023-04-25T12:19:23;10.70;49.50
9116;DHT22;4593;53.652;10.168;2023-04-25T12:21:49;10.50;51.10
9116;DHT22;4593;53.652;10.168;2023-04-25T12:24:23;10.50;52.00
9116;DHT22;4593;53.652;10.168;2023-04-25T12:27:05;10.60;52.90
9116;DHT22;4593;53.652;10.168;2023-04-25T12:29:32;10.30;52.50
9116;DHT22;4593;53.652;10.168;2023-04-25T12:31:58;10.20;54.60
9116;DHT22;4593;53.652;10.168;2023-04-25T12:34:24;10.00;53.90
9116;DHT22;4593;53.652;10.168;2023-04-25T12:36:51;9.90;54.30
9116;DHT22;4593;53.652;10.168;2023-04-25T12:39:24;10.10;55.50
9116;DHT22;4593;53.652;10.168;2023-04-25T12:41:53;10.70;52.20
9116;DHT22;4593;53.652;10.168;2023-04-25T12:44:21;10.90;51.80
9116;DHT22;4593;53.652;10.168;2023-04-25T12:46:48;10.80;51.40
9116;DHT22;4593;53.652;10.168;2023-04-25T12:49:14;10.70;51.90
9116;DHT22;4593;53.652;10.168;2023-04-25T12:51:40;10.40;53.10
9116;DHT22;4593;53.652;10.168;2023-04-25T12:54:07;10.10;56.10
9116;DHT22;4593;53.652;10.168;2023-04-25T12:56:34;10.00;56.10
9116;DHT22;4593;53.652;10.168;2023-04-25T12:59:01;9.70;57.10
9116;DHT22;4593;53.652;10.168;2023-04-25T13:01:28;9.50;58.40
9116;DHT22;4593;53.652;10.168;2023-04-25T13:03:54;9.00;59.60
9116;DHT22;4593;53.652;10.168;2023-04-25T13:06:21;8.80;62.00
9116;DHT22;4593;53.652;10.168;2023-04-25T13:08:48;8.60;64.50
9116;DHT22;4593;53.652;10.168;2023-04-25T13:11:14;8.60;67.60
9116;DHT22;4593;53.652;10.168;2023-04-25T13:13:43;8.90;66.70
9116;DHT22;4593;53.652;10.168;2023-04-25T13:16:10;9.50;65.00
9116;DHT22;4593;53.652;10.168;2023-04-25T13:18:37;9.70;61.50
9116;DHT22;4593;53.652;10.168;2023-04-25T13:21:04;9.60;60.40
9116;DHT22;4593;53.652;10.168;2023-04-25T13:23:30;9.50;57.40
9116;DHT22;4593;53.652;10.168;2023-04-25T13:25:56;9.40;57.40
9116;DHT22;4593;53.652;10.168;2023-04-25T13:28:29;9.40;57.70
9116;DHT22;4593;53.652;10.168;2023-04-25T13:30:56;9.10;58.70
9116;DHT22;4593;53.652;10.168;2023-04-25T13:33:22;9.00;60.70
9116;DHT22;4593;53.652;10.168;2023-04-25T13:35:49;8.90;62.60
9116;DHT22;4593;53.652;10.168;2023-04-25T13:38:23;8.90;62.60
9116;DHT22;4593;53.652;10.168;2023-04-25T13:40:50;9.10;63.50
9116;DHT22;4593;53.652;10.168;2023-04-25T13:43:19;9.30;63.30
9116;DHT22;4593;53.652;10.168;2023-04-25T13:45:45;9.30;63.40
9116;DHT22;4593;53.652;10.168;2023-04-25T13:48:11;9.60;64.00
9116;DHT22;4593;53.652;10.168;2023-04-25T13:50:37;9.70;61.60
9116;DHT22;4593;53.652;10.168;2023-04-25T13:53:02;10.00;60.80
9116;DHT22;4593;53.652;10.168;2023-04-25T13:55:28;10.10;61.10
9116;DHT22;4593;53.652;10.168;2023-04-25T13:57:54;9.60;64.80
9116;DHT22;4593;53.652;10.168;2023-04-25T14:00:20;8.70;71.00
9116;DHT22;4593;53.652;10.168;2023-04-25T14:02:49;8.40;74.50
9116;DHT22;4593;53.652;10.168;2023-04-25T14:05:15;8.20;77.30
9116;DHT22;4593;53.652;10.168;2023-04-25T14:07:41;8.00;78.00
9116;DHT22;4593;53.652;10.168;2023-04-25T14:10:07;7.90;79.20
9116;DHT22;4593;53.652;10.168;2023-04-25T14:12:33;8.00;78.80
9116;DHT22;4593;53.652;10.168;2023-04-25T14:14:59;8.00;78.70
9116;DHT22;4593;53.652;10.168;2023-04-25T14:17:24;7.90;75.70
9116;DHT22;4593;53.652;10.168;2023-04-25T14:19:50;8.10;77.10
9116;DHT22;4593;53.652;10.168;2023-04-25T14:22:16;8.50;75.60
9116;DHT22;4593;53.652;10.168;2023-04-25T14:24:43;8.70;73.80
9116;DHT22;4593;53.652;10.168;2023-04-25T14:27:09;9.00;72.60
9116;DHT22;4593;53.652;10.168;2023-04-25T14:29:35;8.80;67.40
9116;DHT22;4593;53.652;10.168;2023-04-25T14:32:01;8.60;66.90
9116;DHT22;4593;53.652;10.168;2023-04-25T14:34:27;8.80;65.20
9116;DHT22;4593;53.652;10.168;2023-04-25T14:36:53;8.80;61.50
9116;DHT22;4593;53.652;10.168;2023-04-25T14:39:21;8.80;60.50
9116;DHT22;4593;53.652;10.168;2023-04-25T14:41:46;8.90;61.30
9116;DHT22;4593;53.652;10.168;2023-04-25T14:44:12;9.30;58.90
9116;DHT22;4593;53.652;10.168;2023-04-25T14:46:38;9.40;57.10
9116;DHT22;4593;53.652;10.168;2023-04-25T14:49:04;9.40;57.70
9116;DHT22;4593;53.652;10.168;2023-04-25T14:51:30;9.40;56.80
9116;DHT22;4593;53.652;10.168;2023-04-25T14:53:56;9.60;56.40
9116;DHT22;4593;53.652;10.168;2023-04-25T14:56:22;10.00;56.60
9116;DHT22;4593;53.652;10.168;2023-04-25T14:58:48;10.30;54.50
9116;DHT22;4593;53.652;10.168;2023-04-25T15:01:14;10.10;53.70
9116;DHT22;4593;53.652;10.168;2023-04-25T15:03:40;9.90;55.70
9116;DHT22;4593;53.652;10.168;2023-04-25T15:06:06;9.80;56.20
9116;DHT22;4593;53.652;10.168;2023-04-25T15:08:32;9.50;57.20
9116;DHT22;4593;53.652;10.168;2023-04-25T15:10:59;9.50;59.00
9116;DHT22;4593;53.652;10.168;2023-04-25T15:13:26;9.80;57.60
9116;DHT22;4593;53.652;10.168;2023-04-25T15:15:52;10.10;57.30
9116;DHT22;4593;53.652;10.168;2023-04-25T15:18:22;9.60;57.70
9116;DHT22;4593;53.652;10.168;2023-04-25T15:20:50;9.40;59.70
9116;DHT22;4593;53.652;10.168;2023-04-25T15:23:17;9.00;60.80
9116;DHT22;4593;53.652;10.168;2023-04-25T15:25:42;8.60;59.30
9116;DHT22;4593;53.652;10.168;2023-04-25T15:28:08;8.40;58.60
9116;DHT22;4593;53.652;10.168;2023-04-25T15:30:34;8.40;57.00
9116;DHT22;4593;53.652;10.168;2023-04-25T15:33:00;8.60;56.30
9116;DHT22;4593;53.652;10.168;2023-04-25T15:35:26;8.70;55.90
9116;DHT22;4593;53.652;10.168;2023-04-25T15:37:52;8.90;56.40
9116;DHT22;4593;53.652;10.168;2023-04-25T15:40:18;9.10;56.80
9116;DHT22;4593;53.652;10.168;2023-04-25T15:42:48;9.20;57.50
9116;DHT22;4593;53.652;10.168;2023-04-25T15:45:17;8.90;59.10
9116;DHT22;4593;53.652;10.168;2023-04-25T15:47:44;8.80;60.10
9116;DHT22;4593;53.652;10.168;2023-04-25T15:50:10;8.40;60.60
9116;DHT22;4593;53.652;10.168;2023-04-25T15:52:37;8.30;61.90
9116;DHT22;4593;53.652;10.168;2023-04-25T15:55:04;8.30;61.80
9116;DHT22;4593;53.652;10.168;2023-04-25T15:57:31;8.30;62.40
9116;DHT22;4593;53.652;10.168;2023-04-25T15:59:57;8.30;63.00
9116;DHT22;4593;53.652;10.168;2023-04-25T16:02:23;8.20;64.50
9116;DHT22;4593;53.652;10.168;2023-04-25T16:04:49;8.00;65.40
9116;DHT22;4593;53.652;10.168;2023-04-25T16:07:14;8.00;65.30